Time;durP1;ratioP1;P1;durP2;ratioP2;P2;SDS_P1;SDS_P2;PMS_P1;PMS_P2;Temp;Humidity;BMP_temperature;BMP_pressure;BME280_temperature;BME280_humidity;BME280_pressure;Samples;Min_cycle;Max_cycle;Signal;HPM_P1;HPM_P2
2022/06/07 00:00:25;;;;;;;;;;;20.40;66.90;;;19.72;62.58;96334.69;4127243;34;20118;-87
2022/06/07 00:02:54;;;;;;;;;;;20.40;66.90;;;19.71;62.63;96339.44;4150038;34;20057;-85
2022/06/07 00:05:23;;;;;;;;;;;20.40;66.90;;;19.71;62.37;96338.59;4150103;34;19904;-85
2022/06/07 00:07:53;;;;;;;;;;;20.40;67.00;;;19.70;62.46;96331.41;4149992;34;20155;-85
2022/06/07 00:10:23;;;;;;;;;;;20.40;66.90;;;19.72;62.33;96337.47;4149631;34;20133;-86
2022/06/07 00:12:52;;;;;;;;;;;20.40;66.90;;;19.69;62.44;96338.94;4152548;34;20153;-86
2022/06/07 00:15:22;;;;;;;;;;;20.40;66.90;;;19.70;62.26;96325.88;4177624;34;19910;-86
2022/06/07 00:17:51;;;;;;;;;;;20.40;66.90;;;19.69;62.54;96332.56;4154382;34;20241;-85
2022/06/07 00:20:21;;;;;;;;;;;20.40;66.80;;;19.69;62.50;96324.22;4200062;33;19903;-86
2022/06/07 00:22:49;;;;;;;;;;;20.40;66.90;;;19.68;62.48;96328.19;4177371;34;19903;-86
2022/06/07 00:25:18;;;;;;;;;;;20.40;66.90;;;19.67;62.43;96326.53;4177128;34;19903;-86
2022/06/07 00:27:47;;;;;;;;;;;20.30;66.90;;;19.68;62.50;96322.63;4154292;34;19903;-86
2022/06/07 00:30:16;;;;;;;;;;;20.30;66.90;;;19.65;62.49;96312.16;4153967;34;19903;-86
2022/06/07 00:32:46;;;;;;;;;;;20.30;66.90;;;19.63;62.51;96307.75;4177308;34;19970;-86
2022/06/07 00:35:15;;;;;;;;;;;20.30;66.90;;;19.65;62.27;96317.72;4154284;34;20046;-85
2022/06/07 00:37:43;;;;;;;;;;;20.30;66.80;;;19.63;62.61;96299.41;4177000;34;20045;-86
2022/06/07 00:40:13;;;;;;;;;;;20.30;67.00;;;19.65;62.44;96306.59;4153751;34;19911;-86
2022/06/07 00:42:42;;;;;;;;;;;20.30;66.90;;;19.63;62.54;96307.75;4154428;34;19904;-85
2022/06/07 00:45:14;;;;;;;;;;;20.30;66.80;;;19.63;62.18;96301.34;4177168;34;20000;-85
2022/06/07 00:47:44;;;;;;;;;;;20.30;66.80;;;19.62;62.51;96306.09;4176993;34;19968;-85
2022/06/07 00:50:19;;;;;;;;;;;20.30;66.80;;;19.61;62.28;96301.69;4153752;34;19931;-85
2022/06/07 00:52:48;;;;;;;;;;;20.30;66.80;;;19.61;62.39;96310.03;4176957;34;20144;-86
2022/06/07 00:55:17;;;;;;;;;;;20.30;66.80;;;19.59;62.56;96292.06;4154274;34;19910;-85
2022/06/07 00:57:52;;;;;;;;;;;20.30;66.90;;;19.60;62.37;96302.84;4177036;34;19903;-86
2022/06/07 01:00:32;;;;;;;;;;;20.30;66.90;;;19.60;62.55;96300.06;4176645;34;19995;-86
2022/06/07 01:03:04;;;;;;;;;;;20.30;66.90;;;19.59;62.49;96303.97;4136495;34;19911;-85
2022/06/07 01:05:33;;;;;;;;;;;20.30;66.90;;;19.59;62.90;96303.97;4126752;34;20166;-85
2022/06/07 01:10:56;;;;;;;;;;;20.30;66.80;;;19.57;62.79;96306.25;4126342;34;20097;-85
2022/06/07 01:13:32;;;;;;;;;;;20.30;66.80;;;19.57;62.70;96308.22;4126808;34;20174;-86
2022/06/07 01:16:08;;;;;;;;;;;20.30;66.80;;;19.55;62.55;96294.69;4149544;34;19904;-85
2022/06/07 01:18:44;;;;;;;;;;;20.20;66.70;;;19.56;62.17;96303.81;4126822;34;20057;-85
2022/06/07 01:21:30;;;;;;;;;;;20.30;66.80;;;19.55;62.39;96286.34;4126331;34;19904;-85
2022/06/07 01:23:59;;;;;;;;;;;20.30;66.90;;;19.55;62.43;96291.06;4126572;34;20250;-85
2022/06/07 01:26:36;;;;;;;;;;;20.20;66.80;;;19.55;62.54;96288.31;4149165;34;19933;-86
2022/06/07 01:29:07;;;;;;;;;;;20.20;66.80;;;19.54;62.48;96290.28;4149201;34;19938;-86
2022/06/07 01:31:36;;;;;;;;;;;20.20;66.70;;;19.53;62.52;96283.09;4127885;34;20040;-85
2022/06/07 01:34:05;;;;;;;;;;;20.20;66.70;;;19.53;62.23;96290.59;4129013;34;20417;-86
2022/06/07 01:36:36;;;;;;;;;;;20.20;66.70;;;19.53;62.49;96285.88;4151406;34;19929;-84
2022/06/07 01:41:56;;;;;;;;;;;20.20;66.70;;;19.51;62.73;96282.59;4128431;34;20135;-84
2022/06/07 01:44:37;;;;;;;;;;;20.20;66.80;;;19.51;62.38;96292.88;4128899;34;20154;-86
2022/06/07 01:47:09;;;;;;;;;;;20.20;66.80;;;19.51;62.41;96287.31;4128877;34;20071;-86
2022/06/07 01:49:41;;;;;;;;;;;20.20;66.90;;;19.50;62.48;96294.84;4129016;34;19910;-86
2022/06/07 01:52:11;;;;;;;;;;;20.20;66.90;;;19.50;62.48;96282.91;4128189;34;19927;-86
2022/06/07 01:54:44;;;;;;;;;;;20.20;66.90;;;19.47;62.42;96289.94;4151470;34;20162;-86
2022/06/07 01:57:13;;;;;;;;;;;20.20;66.80;;;19.48;62.30;96286.00;4128829;34;19903;-86
2022/06/07 01:59:42;;;;;;;;;;;20.20;66.80;;;19.47;62.46;96288.00;4200674;33;19904;-85
2022/06/07 02:02:18;;;;;;;;;;;20.20;67.00;;;19.47;62.54;96296.31;4178650;34;20123;-85
2022/06/07 02:04:48;;;;;;;;;;;20.20;67.00;;;19.46;62.58;96289.13;4155904;34;19903;-85
2022/06/07 02:07:20;;;;;;;;;;;20.20;67.00;;;19.47;62.42;96289.94;4178595;34;19903;-85
2022/06/07 02:09:53;;;;;;;;;;;20.10;67.00;;;19.46;62.30;96277.19;4129395;34;20013;-85
2022/06/07 02:12:23;;;;;;;;;;;20.10;66.90;;;19.45;62.23;96286.66;4128728;34;19918;-85
2022/06/07 02:14:52;;;;;;;;;;;20.10;66.70;;;19.45;62.26;96281.09;4128720;34;20009;-86
2022/06/07 02:17:21;;;;;;;;;;;20.10;66.80;;;19.45;62.45;96283.88;4128465;34;19911;-86
2022/06/07 02:20:11;;;;;;;;;;;20.10;66.80;;;19.44;62.38;96279.47;4150163;34;19911;-86
2022/06/07 02:22:41;;;;;;;;;;;20.10;66.80;;;19.42;62.84;96284.56;4128490;34;19903;-86
2022/06/07 02:25:10;;;;;;;;;;;20.10;66.90;;;19.42;62.73;96287.34;4128481;34;20000;-86
2022/06/07 02:27:39;;;;;;;;;;;20.10;66.90;;;19.40;62.52;96284.88;4128288;34;19911;-85
2022/06/07 02:30:11;;;;;;;;;;;20.10;66.80;;;19.42;63.01;96290.13;4127483;34;19904;-86
2022/06/07 02:32:40;;;;;;;;;;;20.10;67.10;;;19.40;62.52;96289.63;4127643;34;20072;-87
2022/06/07 02:35:09;;;;;;;;;;;20.10;66.80;;;19.40;62.57;96286.84;4128266;34;19910;-84
2022/06/07 02:37:38;;;;;;;;;;;20.10;66.80;;;19.40;62.65;96295.16;4128344;34;20120;-84
2022/06/07 02:40:09;;;;;;;;;;;20.10;67.00;;;19.40;62.38;96295.16;4127829;34;19904;-86
2022/06/07 02:42:38;;;;;;;;;;;20.10;67.00;;;19.40;62.85;96300.72;4150060;34;20162;-86
2022/06/07 02:45:08;;;;;;;;;;;20.10;67.30;;;19.39;62.43;96299.09;4173744;34;19904;-86
2022/06/07 02:47:37;;;;;;;;;;;20.10;66.90;;;19.37;62.62;96302.16;4128423;34;19934;-86
2022/06/07 02:50:13;;;;;;;;;;;20.10;66.80;;;19.36;62.63;96308.06;4150406;34;19910;-86
2022/06/07 02:52:46;;;;;;;;;;;20.10;67.10;;;19.38;62.55;96305.78;4128124;34;19904;-86
2022/06/07 02:55:22;;;;;;;;;;;20.10;67.00;;;19.37;62.52;96307.72;4150830;34;19904;-85
2022/06/07 02:57:53;;;;;;;;;;;20.10;67.00;;;19.36;62.45;96300.56;4150718;34;19904;-85
2022/06/07 03:00:26;;;;;;;;;;;20.10;67.00;;;19.37;62.44;96304.13;4127707;34;20127;-86
2022/06/07 03:02:55;;;;;;;;;;;20.00;67.00;;;19.37;62.63;96312.47;4150706;34;19903;-86
2022/06/07 03:05:25;;;;;;;;;;;20.10;67.00;;;19.38;62.51;96314.09;4150478;34;19903;-86
2022/06/07 03:08:04;;;;;;;;;;;20.00;67.00;;;19.37;62.28;96306.91;4150554;34;19903;-86
2022/06/07 03:10:35;;;;;;;;;;;20.00;66.70;;;19.37;62.48;96318.03;4150237;34;19912;-86
2022/06/07 03:13:06;;;;;;;;;;;20.10;66.80;;;19.37;62.51;96313.28;4128112;34;19979;-86
2022/06/07 03:15:35;;;;;;;;;;;20.00;66.90;;;19.38;62.35;96319.66;4149706;34;20412;-85
2022/06/07 03:18:06;;;;;;;;;;;20.10;67.00;;;19.37;62.43;96313.28;4127881;34;20390;-86
2022/06/07 03:20:43;;;;;;;;;;;20.10;66.70;;;19.37;62.50;96312.47;4127490;34;19903;-86
2022/06/07 03:23:14;;;;;;;;;;;20.10;66.70;;;19.37;62.54;96313.28;4127996;34;19986;-86
2022/06/07 03:25:48;;;;;;;;;;;20.10;66.80;;;19.38;62.28;96314.09;4127617;34;20037;-85
2022/06/07 03:28:17;;;;;;;;;;;20.10;66.70;;;19.37;62.15;96315.25;4127850;34;20084;-86
2022/06/07 03:30:46;;;;;;;;;;;20.10;66.60;;;19.39;62.14;96315.75;4127305;34;19930;-85
2022/06/07 03:33:21;;;;;;;;;;;20.10;66.60;;;19.39;62.26;96313.78;4127671;34;19976;-86
2022/06/07 03:35:51;;;;;;;;;;;20.10;66.80;;;19.40;61.83;96318.19;4127525;34;19904;-85
2022/06/07 03:38:20;;;;;;;;;;;20.10;66.40;;;19.43;62.05;96320.31;4150216;34;19904;-86
2022/06/07 03:40:52;;;;;;;;;;;20.10;66.30;;;19.43;61.94;96323.09;4126784;34;19904;-85
2022/06/07 03:43:28;;;;;;;;;;;20.10;66.20;;;19.45;62.11;96325.53;4127702;34;20085;-85
2022/06/07 03:45:57;;;;;;;;;;;20.10;66.30;;;19.46;61.98;96319.66;4127525;34;19903;-85
2022/06/07 03:48:26;;;;;;;;;;;20.20;66.40;;;19.48;61.96;96313.78;4127604;34;19903;-85
2022/06/07 03:50:55;;;;;;;;;;;20.20;66.10;;;19.49;61.69;96322.94;4145788;34;20138;-86
2022/06/07 03:53:26;;;;;;;;;;;20.20;66.10;;;19.49;61.93;96315.41;4177433;34;19903;-86
2022/06/07 03:55:56;;;;;;;;;;;20.20;66.40;;;19.51;61.67;96313.13;4154651;34;20160;-86
2022/06/07 03:58:29;;;;;;;;;;;20.20;65.90;;;19.52;61.88;96314.78;4177617;34;20142;-86
2022/06/07 04:01:01;;;;;;;;;;;20.20;65.90;;;19.52;61.55;96308.38;4159070;34;20225;-86
2022/06/07 04:03:31;;;;;;;;;;;20.20;65.70;;;19.55;61.19;96316.91;4149995;34;19903;-86
2022/06/07 04:06:00;;;;;;;;;;;20.30;65.70;;;19.55;61.60;96319.69;4166352;34;19904;-86
2022/06/07 04:08:33;;;;;;;;;;;20.30;65.60;;;19.57;61.53;96314.59;4154670;34;20430;-86
2022/06/07 04:11:04;;;;;;;;;;;20.30;65.90;;;19.58;61.67;96313.44;4153967;34;20126;-86
2022/06/07 04:13:46;;;;;;;;;;;20.30;66.10;;;19.59;61.79;96309.53;4154607;34;19959;-86
2022/06/07 04:16:17;;;;;;;;;;;20.30;66.00;;;19.60;61.57;96311.16;4159382;34;19998;-86
2022/06/07 04:18:53;;;;;;;;;;;20.30;66.10;;;19.62;61.81;96316.41;4127142;34;19977;-86
2022/06/07 04:21:22;;;;;;;;;;;20.30;66.20;;;19.63;62.26;96304.97;4149458;34;20186;-86
2022/06/07 04:23:51;;;;;;;;;;;20.30;66.50;;;19.65;62.16;96307.41;4149779;34;20250;-86
2022/06/07 04:26:25;;;;;;;;;;;20.30;66.70;;;19.66;62.47;96303.50;4127037;34;20439;-85
2022/06/07 04:28:57;;;;;;;;;;;20.40;67.00;;;19.67;62.76;96305.13;4127097;34;19904;-86
2022/06/07 04:31:27;;;;;;;;;;;20.40;67.00;;;19.68;62.89;96303.19;4126660;34;20147;-86
2022/06/07 04:33:59;;;;;;;;;;;20.40;67.20;;;19.69;62.74;96307.56;4127051;34;20188;-86
2022/06/07 04:36:29;;;;;;;;;;;20.40;67.20;;;19.70;62.78;96306.41;4148782;34;20166;-86
2022/06/07 04:39:02;;;;;;;;;;;20.40;67.00;;;19.73;62.79;96308.56;4127084;34;19963;-86
2022/06/07 04:41:39;;;;;;;;;;;20.40;67.20;;;19.74;62.74;96307.41;4149213;34;19904;-86
2022/06/07 04:44:11;;;;;;;;;;;20.40;67.20;;;19.76;62.85;96310.69;4149590;34;19904;-86
2022/06/07 04:46:40;;;;;;;;;;;20.50;67.40;;;19.77;63.02;96309.53;4149535;34;19904;-86
2022/06/07 04:49:09;;;;;;;;;;;20.50;67.50;;;19.79;62.80;96312.81;4149693;34;19903;-86
2022/06/07 04:51:39;;;;;;;;;;;20.50;67.40;;;19.82;63.17;96308.56;4149215;34;19904;-86
2022/06/07 04:54:14;;;;;;;;;;;20.50;67.40;;;19.83;63.25;96308.22;4126878;34;19904;-86
2022/06/07 04:56:47;;;;;;;;;;;20.50;67.70;;;19.83;63.21;96313.75;4126846;34;19904;-86
2022/06/07 04:59:16;;;;;;;;;;;20.60;67.70;;;19.88;62.97;96312.84;4126989;34;19904;-86
2022/06/07 05:01:54;;;;;;;;;;;20.60;67.50;;;19.88;62.84;96313.63;4142813;34;20237;-86
2022/06/07 05:04:27;;;;;;;;;;;20.60;67.30;;;19.91;63.14;96310.22;4176927;34;19903;-85
2022/06/07 05:06:57;;;;;;;;;;;20.60;67.50;;;19.92;62.63;96311.84;4162565;34;20069;-86
2022/06/07 05:09:32;;;;;;;;;;;20.60;66.90;;;19.95;62.82;96312.31;4151984;34;20250;-86
2022/06/07 05:12:11;;;;;;;;;;;20.70;67.10;;;19.96;62.43;96313.94;4128976;34;19904;-86
2022/06/07 05:14:45;;;;;;;;;;;20.70;67.10;;;19.98;62.42;96309.72;4151877;34;20023;-86
2022/06/07 05:17:17;;;;;;;;;;;20.70;66.80;;;20.00;62.46;96315.75;4151692;34;19904;-86
2022/06/07 05:19:50;;;;;;;;;;;20.70;66.90;;;20.01;62.25;96316.56;4174307;34;19968;-86
2022/06/07 05:22:19;;;;;;;;;;;20.70;66.70;;;20.02;62.27;96318.19;4169272;34;20153;-86
2022/06/07 05:24:54;;;;;;;;;;;20.70;66.60;;;20.03;62.35;96314.28;4156298;34;20373;-87
2022/06/07 05:27:29;;;;;;;;;;;20.70;66.60;;;20.02;62.44;96318.19;4156067;34;19903;-87
2022/06/07 05:29:59;;;;;;;;;;;20.70;66.50;;;20.01;62.48;96314.59;4178654;34;19903;-86
2022/06/07 05:32:42;;;;;;;;;;;20.70;66.60;;;20.01;62.34;96317.38;4136542;34;20064;-87
2022/06/07 05:35:15;;;;;;;;;;;20.70;66.60;;;20.01;62.34;96316.56;4128944;34;19904;-87
2022/06/07 05:37:52;;;;;;;;;;;20.70;66.60;;;20.01;62.41;96313.78;4151497;34;20234;-86
2022/06/07 05:40:26;;;;;;;;;;;20.70;66.60;;;20.00;62.37;96317.72;4151015;34;19904;-86
2022/06/07 05:42:58;;;;;;;;;;;20.70;66.50;;;20.02;62.19;96318.19;4172091;34;20107;-86
2022/06/07 05:45:39;;;;;;;;;;;20.70;66.70;;;20.01;62.39;96313.78;4178912;34;20071;-86
2022/06/07 05:48:18;;;;;;;;;;;20.70;66.70;;;20.03;62.43;96319.84;4155378;34;20113;-87
2022/06/07 05:50:51;;;;;;;;;;;20.70;66.60;;;20.04;62.20;96318.69;4150926;34;19908;-86
2022/06/07 05:53:24;;;;;;;;;;;20.80;66.60;;;20.05;62.03;96314.78;4128937;34;20125;-87
2022/06/07 05:55:54;;;;;;;;;;;20.80;66.50;;;20.06;62.07;96310.84;4128719;34;19926;-87
2022/06/07 05:58:26;;;;;;;;;;;20.80;66.40;;;20.08;62.20;96314.91;4174185;34;20095;-87
2022/06/07 06:00:56;;;;;;;;;;;20.80;66.50;;;20.11;62.11;96318.19;4154232;34;19910;-86
2022/06/07 06:03:28;;;;;;;;;;;20.80;66.50;;;20.13;62.15;96319.47;4178821;34;19903;-86
2022/06/07 06:05:57;;;;;;;;;;;20.80;66.50;;;20.16;61.89;96320.78;4155773;34;20435;-86
2022/06/07 06:11:32;;;;;;;;;;;20.80;66.40;;;20.20;62.19;96311.44;4128396;34;20057;-86
2022/06/07 06:14:25;;;;;;;;;;;20.90;66.50;;;20.23;61.88;96316.34;4174658;34;19910;-86
2022/06/07 06:17:02;;;;;;;;;;;20.90;66.30;;;20.21;61.96;96301.97;4155698;34;19954;-86
2022/06/07 06:19:37;;;;;;;;;;;20.90;66.30;;;20.24;61.92;96306.88;4178685;34;20038;-86
2022/06/07 06:22:12;;;;;;;;;;;20.90;66.50;;;20.27;62.12;96310.13;4151870;34;19908;-86
2022/06/07 06:25:34;;;;;;;;;;;20.90;66.60;;;20.26;62.07;96297.38;4145434;34;20180;-87
2022/06/07 06:28:23;;;;;;;;;;;21.00;66.50;;;20.27;62.14;96299.00;4128507;34;19903;-86
2022/06/07 06:31:05;;;;;;;;;;;21.00;66.30;;;20.27;62.15;96293.47;4150619;34;19904;-86
2022/06/07 06:33:54;;;;;;;;;;;21.00;66.30;;;20.29;62.09;96299.50;4128056;34;20234;-87
2022/06/07 06:36:31;;;;;;;;;;;21.00;66.40;;;20.28;62.29;96282.00;4150772;34;19910;-86
2022/06/07 06:39:06;;;;;;;;;;;21.00;66.60;;;20.30;62.17;96292.81;4150665;34;19911;-87
2022/06/07 06:42:26;;;;;;;;;;;21.00;66.40;;;20.34;62.09;96293.75;4128226;34;19903;-87
2022/06/07 06:45:51;;;;;;;;;;;21.00;66.40;;;20.36;62.10;96291.47;4131180;34;20166;-86
2022/06/07 06:48:37;;;;;;;;;;;21.00;66.20;;;20.40;61.77;96281.31;4150836;34;20089;-86
2022/06/07 06:51:16;;;;;;;;;;;21.10;66.20;;;20.43;61.81;96291.78;4150353;34;19904;-85
2022/06/07 06:53:57;;;;;;;;;;;21.10;66.20;;;20.45;61.53;96283.09;4128335;34;20250;-86
2022/06/07 06:56:41;;;;;;;;;;;21.10;65.90;;;20.47;61.35;96289.94;4150632;34;19904;-86
2022/06/07 06:59:26;;;;;;;;;;;21.10;65.90;;;20.49;61.55;96281.28;4149536;34;20070;-86
2022/06/07 07:02:21;;;;;;;;;;;21.10;66.00;;;20.50;61.55;96275.38;4158286;34;20229;-85
2022/06/07 07:05:16;;;;;;;;;;;21.10;65.90;;;20.52;61.74;96275.88;4149595;34;19910;-85
2022/06/07 07:07:59;;;;;;;;;;;21.10;65.90;;;20.55;61.36;96277.16;4150429;34;19903;-86
2022/06/07 07:10:40;;;;;;;;;;;21.20;65.70;;;20.57;61.67;96262.94;4127808;34;20142;-86
2022/06/07 07:13:09;;;;;;;;;;;21.20;65.70;;;20.58;61.51;96270.13;4150622;34;19922;-86
2022/06/07 07:15:49;;;;;;;;;;;21.20;65.80;;;20.58;61.29;96273.72;4127771;34;19912;-86
2022/06/07 07:18:32;;;;;;;;;;;21.20;65.60;;;20.60;61.38;96267.81;4172455;34;19903;-87
2022/06/07 07:21:22;;;;;;;;;;;21.20;65.60;;;20.59;61.17;96255.06;4147671;34;19903;-86
2022/06/07 07:23:54;;;;;;;;;;;21.20;65.50;;;20.60;61.57;96256.69;4166127;34;20111;-86
2022/06/07 07:26:36;;;;;;;;;;;21.30;65.70;;;20.63;61.42;96250.44;4127733;34;20246;-87
2022/06/07 07:29:23;;;;;;;;;;;21.30;65.70;;;20.62;61.26;96255.22;4149949;34;19910;-86
2022/06/07 07:31:56;;;;;;;;;;;21.30;65.50;;;20.65;60.94;96253.72;4127325;34;19903;-86
2022/06/07 07:34:31;;;;;;;;;;;21.30;65.30;;;20.66;60.91;96249.78;4145134;34;19903;-86
2022/06/07 07:37:02;;;;;;;;;;;21.30;65.20;;;20.65;61.11;96245.38;4154873;34;20155;-85
2022/06/07 07:39:35;;;;;;;;;;;21.30;65.30;;;20.67;61.08;96245.84;4155048;34;19903;-86
2022/06/07 07:42:05;;;;;;;;;;;21.30;65.30;;;20.68;60.85;96247.50;4154463;34;19908;-87
2022/06/07 07:44:39;;;;;;;;;;;21.30;65.20;;;20.68;61.04;96239.16;4177882;34;19907;-86
2022/06/07 07:47:09;;;;;;;;;;;21.30;65.20;;;20.70;61.10;96250.75;4154772;34;19906;-86
2022/06/07 07:49:42;;;;;;;;;;;21.30;65.50;;;20.70;61.06;96248.78;4154897;34;20435;-86
2022/06/07 07:52:19;;;;;;;;;;;21.30;65.40;;;20.71;61.09;96241.25;4154164;34;20465;-86
2022/06/07 07:54:55;;;;;;;;;;;21.30;65.30;;;20.72;61.20;96237.31;4177865;34;20111;-86
2022/06/07 07:57:25;;;;;;;;;;;21.40;65.20;;;20.73;60.62;96249.25;4154604;34;20261;-86
2022/06/07 07:59:56;;;;;;;;;;;21.40;65.10;;;20.74;61.05;96245.34;4177215;34;19903;-87
2022/06/07 08:02:25;;;;;;;;;;;21.40;65.20;;;20.74;61.05;96237.00;4154510;34;19907;-86
2022/06/07 08:05:09;;;;;;;;;;;21.40;65.30;;;20.73;61.31;96227.81;4154840;34;19979;-87
2022/06/07 08:07:39;;;;;;;;;;;21.40;65.50;;;20.74;61.16;96228.66;4154599;34;20227;-87
2022/06/07 08:10:09;;;;;;;;;;;21.40;65.30;;;20.72;61.28;96228.97;4200142;33;19910;-86
2022/06/07 08:12:38;;;;;;;;;;;21.40;65.50;;;20.70;61.51;96225.72;4200782;33;20338;-88
2022/06/07 08:15:09;;;;;;;;;;;21.40;65.50;;;20.71;61.46;96224.56;4160710;34;20045;-88
2022/06/07 08:17:41;;;;;;;;;;;21.40;65.50;;;20.70;61.42;96222.94;4127219;34;19941;-87
2022/06/07 08:20:11;;;;;;;;;;;21.40;65.60;;;20.68;61.65;96231.59;4137111;34;19915;-85
2022/06/07 08:22:41;;;;;;;;;;;21.30;65.70;;;20.67;61.56;96218.03;4154364;34;19910;-86
2022/06/07 08:25:12;;;;;;;;;;;21.40;65.60;;;20.66;61.57;96228.34;4177471;34;19910;-86
2022/06/07 08:27:42;;;;;;;;;;;21.30;65.80;;;20.65;61.48;96217.56;4178092;34;20040;-86
2022/06/07 08:30:13;;;;;;;;;;;21.30;65.60;;;20.63;61.32;96204.00;4139682;34;20130;-86
2022/06/07 08:32:45;;;;;;;;;;;21.30;65.60;;;20.63;61.52;96214.28;4149582;34;20296;-87
2022/06/07 08:38:03;;;;;;;;;;;21.30;65.70;;;20.61;61.58;96208.25;4149729;34;20147;-87
2022/06/07 08:40:40;;;;;;;;;;;21.30;65.90;;;20.60;61.70;96209.41;4125860;34;20167;-87
2022/06/07 08:43:15;;;;;;;;;;;21.30;65.80;;;20.58;61.85;96203.38;4149471;34;20131;-87
2022/06/07 08:45:43;;;;;;;;;;;21.30;65.90;;;20.59;62.00;96205.00;4127055;34;19903;-85
2022/06/07 08:48:21;;;;;;;;;;;21.30;66.00;;;20.58;61.68;96197.81;4127054;34;20018;-86
2022/06/07 08:51:12;;;;;;;;;;;21.20;65.80;;;20.57;61.61;96207.31;4150210;34;20296;-88
2022/06/07 08:58:42;;;;;;;;;;;21.20;65.90;;;20.52;61.61;96195.22;4102785;34;20052;-86
2022/06/07 09:01:18;;;;;;;;;;;21.30;66.00;;;20.56;61.92;96200.13;4149379;34;19911;-86
2022/06/07 09:03:55;;;;;;;;;;;21.20;66.20;;;20.56;62.08;96194.56;4149473;34;19904;-86
2022/06/07 09:06:25;;;;;;;;;;;21.20;66.10;;;20.53;61.92;96193.25;4149380;34;20144;-86
2022/06/07 09:08:59;;;;;;;;;;;21.20;66.20;;;20.54;61.88;96192.91;4172357;34;19930;-86
2022/06/07 09:14:30;;;;;;;;;;;21.20;66.40;;;20.53;61.84;96188.50;4172363;34;20099;-86
2022/06/07 09:17:12;;;;;;;;;;;21.20;66.20;;;20.53;62.09;96184.88;4149515;34;20215;-86
2022/06/07 09:19:41;;;;;;;;;;;21.20;66.20;;;20.52;62.05;96188.84;4154521;34;20222;-86
2022/06/07 09:22:23;;;;;;;;;;;21.20;66.20;;;20.53;61.84;96191.28;4153565;34;19903;-87
2022/06/07 09:25:01;;;;;;;;;;;21.20;66.30;;;20.50;62.08;96178.03;4176240;34;19910;-85
2022/06/07 09:28:12;;;;;;;;;;;21.20;66.40;;;20.52;61.62;96183.28;4149277;34;20106;-86
2022/06/07 09:31:19;;;;;;;;;;;21.20;66.20;;;20.51;62.03;96179.69;4168405;34;20019;-87
2022/06/07 09:33:57;;;;;;;;;;;21.20;66.40;;;20.49;62.38;96173.63;4150047;33;20215;-86
2022/06/07 09:36:34;;;;;;;;;;;21.20;66.40;;;20.49;61.85;96164.50;4126692;34;20079;-87
2022/06/07 09:44:12;;;;;;;;;;;21.20;66.50;;;20.47;62.15;96162.03;4095107;34;20095;-87
2022/06/07 09:46:45;;;;;;;;;;;21.10;66.50;;;20.48;62.30;96162.84;4050935;34;20263;-88
2022/06/07 09:49:34;;;;;;;;;;;21.10;66.50;;;20.47;62.13;96152.88;4072555;34;19963;-88
2022/06/07 09:52:13;;;;;;;;;;;21.10;66.60;;;20.47;62.26;96152.88;4072959;34;19919;-88
2022/06/07 09:55:25;;;;;;;;;;;21.10;66.70;;;20.47;62.48;96150.09;4133615;34;19911;-86
2022/06/07 09:58:12;;;;;;;;;;;21.10;66.60;;;20.46;62.27;96157.63;4128945;34;20465;-87
2022/06/07 10:00:47;;;;;;;;;;;21.20;66.60;;;20.46;61.99;96154.03;4173941;34;19911;-87
2022/06/07 10:07:40;;;;;;;;;;;21.10;66.40;;;20.44;62.10;96143.25;3947174;35;19906;-87
2022/06/07 10:10:15;;;;;;;;;;;21.20;66.40;;;20.44;62.31;96137.69;4009532;34;19931;-87
2022/06/07 10:13:40;;;;;;;;;;;21.10;66.50;;;20.43;62.08;96135.22;4048634;34;20051;-85
2022/06/07 10:16:19;;;;;;;;;;;21.10;66.40;;;20.44;62.27;96147.97;4141093;34;20034;-86
2022/06/07 10:18:59;;;;;;;;;;;21.10;67.30;;;20.43;62.31;96135.22;4128903;34;20231;-87
2022/06/07 10:22:03;;;;;;;;;;;21.10;66.30;;;20.42;62.08;96134.44;4151802;34;19904;-87
2022/06/07 10:25:16;;;;;;;;;;;21.10;66.40;;;20.42;61.79;96133.59;4151085;34;20127;-86
2022/06/07 10:27:59;;;;;;;;;;;21.10;66.30;;;20.42;61.99;96139.16;4172725;34;20123;-86
2022/06/07 10:30:32;;;;;;;;;;;21.10;66.30;;;20.40;62.12;96125.59;4155206;34;19987;-87
2022/06/07 10:33:24;;;;;;;;;;;21.10;66.20;;;20.42;62.09;96133.59;4179570;34;19954;-87
2022/06/07 10:35:58;;;;;;;;;;;21.10;66.40;;;20.41;62.29;96120.84;4178507;34;20068;-87
2022/06/07 10:38:48;;;;;;;;;;;21.10;66.50;;;20.39;62.08;96118.41;4178619;34;20233;-89
2022/06/07 10:41:29;;;;;;;;;;;21.10;66.40;;;20.37;61.99;96115.16;4178124;34;19903;-86
2022/06/07 10:44:07;;;;;;;;;;;21.10;66.10;;;20.38;62.07;96114.00;4178459;34;19903;-86
2022/06/07 10:46:38;;;;;;;;;;;21.10;66.20;;;20.38;61.97;96114.00;4178491;34;20081;-86
2022/06/07 10:49:16;;;;;;;;;;;21.10;66.10;;;20.38;61.77;96114.84;4179381;34;19910;-87
2022/06/07 10:54:48;;;;;;;;;;;21.10;66.00;;;20.35;61.87;96111.88;4178184;34;19910;-87
2022/06/07 10:57:20;;;;;;;;;;;21.10;66.20;;;20.36;62.11;96107.97;4155289;34;19903;-87
2022/06/07 10:59:49;;;;;;;;;;;21.10;66.30;;;20.34;62.24;96105.53;4178087;34;20243;-87
2022/06/07 11:03:41;;;;;;;;;;;21.10;66.60;;;20.36;61.87;96107.97;4155206;34;20083;-87
2022/06/07 11:09:55;;;;;;;;;;;21.10;66.30;;;20.35;61.69;96098.00;4177139;34;19903;-87
2022/06/07 11:12:50;;;;;;;;;;;21.00;65.90;;;20.36;62.17;96099.63;4178183;34;19910;-86
2022/06/07 11:15:23;;;;;;;;;;;21.00;66.00;;;20.34;61.82;96097.19;4178135;34;19903;-86
2022/06/07 11:18:02;;;;;;;;;;;21.00;66.10;;;20.35;61.89;96089.66;4155264;34;19910;-87
2022/06/07 11:20:36;;;;;;;;;;;21.10;66.00;;;20.35;62.14;96090.47;4154721;34;19992;-86
2022/06/07 11:23:14;;;;;;;;;;;21.10;66.60;;;20.33;62.01;96084.44;4155111;34;19903;-86
2022/06/07 11:25:59;;;;;;;;;;;21.00;66.00;;;20.35;61.80;96089.66;4177809;34;19965;-87
2022/06/07 11:28:34;;;;;;;;;;;21.00;65.90;;;20.35;61.49;96081.31;4178045;34;20126;-87
2022/06/07 11:31:04;;;;;;;;;;;21.00;65.90;;;20.36;62.00;96077.38;4154610;34;19903;-87
2022/06/07 11:34:13;;;;;;;;;;;21.10;66.10;;;20.36;62.31;96080.16;4155121;34;20107;-86
2022/06/07 11:36:44;;;;;;;;;;;21.10;66.70;;;20.36;62.22;96080.16;4151488;34;20135;-86
2022/06/07 11:39:30;;;;;;;;;;;21.10;66.30;;;20.37;62.18;96079.00;4177817;34;20005;-87
2022/06/07 11:42:21;;;;;;;;;;;21.10;66.80;;;20.35;61.83;96072.97;4177427;34;19910;-87
2022/06/07 11:45:21;;;;;;;;;;;21.10;66.30;;;20.37;62.58;96081.78;4177805;34;20134;-87
2022/06/07 11:48:11;;;;;;;;;;;21.10;66.50;;;20.37;61.76;96059.53;4154775;34;20178;-87
2022/06/07 11:50:56;;;;;;;;;;;21.10;66.20;;;20.37;62.49;96065.09;4154297;34;19910;-87
2022/06/07 11:54:00;;;;;;;;;;;21.10;66.60;;;20.37;62.07;96065.09;4177746;34;20219;-86
2022/06/07 11:56:41;;;;;;;;;;;21.10;66.60;;;20.36;61.69;96057.91;4168607;34;19903;-87
2022/06/07 11:59:35;;;;;;;;;;;21.10;66.10;;;20.38;62.02;96066.75;4177719;34;20001;-86
2022/06/07 12:02:29;;;;;;;;;;;21.10;66.20;;;20.37;62.07;96059.53;4177415;34;19910;-86
2022/06/07 12:05:16;;;;;;;;;;;21.10;66.40;;;20.38;62.11;96055.63;4200773;33;19903;-87
2022/06/07 12:07:55;;;;;;;;;;;21.10;66.40;;;20.38;62.34;96055.63;4154625;34;20123;-87
2022/06/07 12:10:32;;;;;;;;;;;21.10;66.70;;;20.37;62.34;96057.59;4177159;34;20018;-87
2022/06/07 12:13:12;;;;;;;;;;;21.10;66.40;;;20.38;62.30;96050.06;4177805;34;20120;-87
2022/06/07 12:15:46;;;;;;;;;;;21.10;66.50;;;20.38;62.18;96044.50;4154474;34;20318;-87
2022/06/07 12:18:27;;;;;;;;;;;21.10;66.40;;;20.38;61.77;96044.50;4154631;34;19910;-87
2022/06/07 12:21:02;;;;;;;;;;;21.10;66.20;;;20.39;61.77;96040.56;4154081;34;20636;-87
2022/06/07 12:23:35;;;;;;;;;;;21.10;66.00;;;20.39;62.25;96046.13;4177380;34;20283;-87
2022/06/07 12:26:06;;;;;;;;;;;21.10;66.40;;;20.39;62.04;96030.28;4177267;34;20116;-88
2022/06/07 12:28:40;;;;;;;;;;;21.10;66.40;;;20.37;61.91;96032.56;4200574;33;20088;-87
2022/06/07 12:31:13;;;;;;;;;;;21.10;66.00;;;20.39;62.02;96035.84;4199907;33;19903;-87
2022/06/07 12:33:45;;;;;;;;;;;21.10;66.30;;;20.39;61.88;96029.44;4177235;34;20134;-87